sensor_id;sensor_type;location;lat;lon;timestamp;temperature;humidity
14473;DHT22;7322;50.872;4.386;2023-12-07T00:01:31;15.90;99.90
14473;DHT22;7322;50.872;4.386;2023-12-07T00:04:01;15.90;99.90
14473;DHT22;7322;50.872;4.386;2023-12-07T00:06:29;15.90;99.90
14473;DHT22;7322;50.872;4.386;2023-12-07T00:08:56;15.90;99.90
14473;DHT22;7322;50.872;4.386;2023-12-07T00:11:25;15.90;99.90
14473;DHT22;7322;50.872;4.386;2023-12-07T00:13:52;15.90;99.90
14473;DHT22;7322;50.872;4.386;2023-12-07T00:16:21;15.90;99.90
14473;DHT22;7322;50.872;4.386;2023-12-07T00:18:49;15.90;99.90
14473;DHT22;7322;50.872;4.386;2023-12-07T00:21:16;15.90;99.90
14473;DHT22;7322;50.872;4.386;2023-12-07T00:23:43;15.90;99.90
14473;DHT22;7322;50.872;4.386;2023-12-07T00:26:10;15.90;99.90
14473;DHT22;7322;50.872;4.386;2023-12-07T00:28:40;15.90;99.90
14473;DHT22;7322;50.872;4.386;2023-12-07T00:31:07;15.90;99.90
14473;DHT22;7322;50.872;4.386;2023-12-07T00:33:33;15.90;99.90
14473;DHT22;7322;50.872;4.386;2023-12-07T00:36:00;15.80;99.90
14473;DHT22;7322;50.872;4.386;2023-12-07T00:38:27;15.80;99.90
14473;DHT22;7322;50.872;4.386;2023-12-07T00:40:54;15.80;99.90
14473;DHT22;7322;50.872;4.386;2023-12-07T00:43:21;15.80;99.90
14473;DHT22;7322;50.872;4.386;2023-12-07T00:45:50;15.80;99.90
14473;DHT22;7322;50.872;4.386;2023-12-07T00:48:16;15.80;99.90
14473;DHT22;7322;50.872;4.386;2023-12-07T00:50:44;15.80;99.90
14473;DHT22;7322;50.872;4.386;2023-12-07T00:53:10;15.80;99.90
14473;DHT22;7322;50.872;4.386;2023-12-07T00:55:39;15.80;99.90
14473;DHT22;7322;50.872;4.386;2023-12-07T00:58:06;15.80;99.90
14473;DHT22;7322;50.872;4.386;2023-12-07T01:00:34;15.80;99.90
14473;DHT22;7322;50.872;4.386;2023-12-07T01:03:02;15.80;99.90
14473;DHT22;7322;50.872;4.386;2023-12-07T01:05:30;15.80;99.90
14473;DHT22;7322;50.872;4.386;2023-12-07T01:07:57;15.80;99.90
14473;DHT22;7322;50.872;4.386;2023-12-07T01:10:26;15.80;99.90
14473;DHT22;7322;50.872;4.386;2023-12-07T01:12:53;15.80;99.90
14473;DHT22;7322;50.872;4.386;2023-12-07T01:15:21;15.80;99.90
14473;DHT22;7322;50.872;4.386;2023-12-07T01:17:48;15.80;99.90
14473;DHT22;7322;50.872;4.386;2023-12-07T01:20:16;15.80;99.90
14473;DHT22;7322;50.872;4.386;2023-12-07T01:22:43;15.80;99.90
14473;DHT22;7322;50.872;4.386;2023-12-07T01:25:11;15.80;99.90
14473;DHT22;7322;50.872;4.386;2023-12-07T01:27:40;15.80;99.90
14473;DHT22;7322;50.872;4.386;2023-12-07T01:30:08;15.80;99.90
14473;DHT22;7322;50.872;4.386;2023-12-07T01:32:35;15.80;99.90
14473;DHT22;7322;50.872;4.386;2023-12-07T01:35:03;15.80;99.90
14473;DHT22;7322;50.872;4.386;2023-12-07T01:37:36;15.80;99.90
14473;DHT22;7322;50.872;4.386;2023-12-07T01:40:04;15.80;99.90
14473;DHT22;7322;50.872;4.386;2023-12-07T01:42:36;15.80;99.90
14473;DHT22;7322;50.872;4.386;2023-12-07T01:45:05;15.80;99.90
14473;DHT22;7322;50.872;4.386;2023-12-07T01:47:33;15.70;99.90
14473;DHT22;7322;50.872;4.386;2023-12-07T01:50:03;15.80;99.90
14473;DHT22;7322;50.872;4.386;2023-12-07T01:52:31;15.80;99.90
14473;DHT22;7322;50.872;4.386;2023-12-07T01:55:01;15.80;99.90
14473;DHT22;7322;50.872;4.386;2023-12-07T01:57:29;15.80;99.90
14473;DHT22;7322;50.872;4.386;2023-12-07T01:59:56;15.80;99.90
14473;DHT22;7322;50.872;4.386;2023-12-07T02:02:23;15.80;99.90
14473;DHT22;7322;50.872;4.386;2023-12-07T02:04:51;15.80;99.90
14473;DHT22;7322;50.872;4.386;2023-12-07T02:07:19;15.70;99.90
14473;DHT22;7322;50.872;4.386;2023-12-07T02:09:46;15.80;99.90
14473;DHT22;7322;50.872;4.386;2023-12-07T02:12:16;15.70;99.90
14473;DHT22;7322;50.872;4.386;2023-12-07T02:14:45;15.80;99.90
14473;DHT22;7322;50.872;4.386;2023-12-07T02:17:16;15.70;99.90
14473;DHT22;7322;50.872;4.386;2023-12-07T02:19:55;15.80;99.90
14473;DHT22;7322;50.872;4.386;2023-12-07T02:22:27;15.70;99.90
14473;DHT22;7322;50.872;4.386;2023-12-07T02:25:05;15.80;99.90
14473;DHT22;7322;50.872;4.386;2023-12-07T02:27:36;15.70;99.90
14473;DHT22;7322;50.872;4.386;2023-12-07T02:30:04;15.70;99.90
14473;DHT22;7322;50.872;4.386;2023-12-07T02:32:31;15.70;99.90
14473;DHT22;7322;50.872;4.386;2023-12-07T02:35:00;15.70;99.90
14473;DHT22;7322;50.872;4.386;2023-12-07T02:37:33;15.70;99.90
14473;DHT22;7322;50.872;4.386;2023-12-07T02:40:04;15.70;99.90
14473;DHT22;7322;50.872;4.386;2023-12-07T02:42:35;15.70;99.90
14473;DHT22;7322;50.872;4.386;2023-12-07T02:45:04;15.70;99.90
14473;DHT22;7322;50.872;4.386;2023-12-07T02:47:32;15.70;99.90
14473;DHT22;7322;50.872;4.386;2023-12-07T02:49:59;15.70;99.90
14473;DHT22;7322;50.872;4.386;2023-12-07T02:52:27;15.70;99.90
14473;DHT22;7322;50.872;4.386;2023-12-07T02:54:55;15.70;99.90
14473;DHT22;7322;50.872;4.386;2023-12-07T02:57:21;15.70;99.90
14473;DHT22;7322;50.872;4.386;2023-12-07T02:59:51;15.70;99.90
14473;DHT22;7322;50.872;4.386;2023-12-07T03:02:18;15.70;99.90
14473;DHT22;7322;50.872;4.386;2023-12-07T03:04:46;15.70;99.90
14473;DHT22;7322;50.872;4.386;2023-12-07T03:07:13;15.70;99.90
14473;DHT22;7322;50.872;4.386;2023-12-07T03:09:40;15.70;99.90
14473;DHT22;7322;50.872;4.386;2023-12-07T03:12:07;15.70;99.90
14473;DHT22;7322;50.872;4.386;2023-12-07T03:14:34;15.70;99.90
14473;DHT22;7322;50.872;4.386;2023-12-07T03:17:03;15.60;99.90
14473;DHT22;7322;50.872;4.386;2023-12-07T03:19:30;15.70;99.90
14473;DHT22;7322;50.872;4.386;2023-12-07T03:22:09;15.70;99.90
14473;DHT22;7322;50.872;4.386;2023-12-07T03:25:11;15.70;99.90
14473;DHT22;7322;50.872;4.386;2023-12-07T03:27:38;15.70;99.90
14473;DHT22;7322;50.872;4.386;2023-12-07T03:30:39;15.60;99.90
14473;DHT22;7322;50.872;4.386;2023-12-07T03:33:16;15.70;99.90
14473;DHT22;7322;50.872;4.386;2023-12-07T03:35:43;15.60;99.90
14473;DHT22;7322;50.872;4.386;2023-12-07T03:38:10;15.60;99.90
14473;DHT22;7322;50.872;4.386;2023-12-07T03:40:37;15.70;99.90
14473;DHT22;7322;50.872;4.386;2023-12-07T03:43:04;15.60;99.90
14473;DHT22;7322;50.872;4.386;2023-12-07T03:45:31;15.60;99.90
14473;DHT22;7322;50.872;4.386;2023-12-07T03:47:58;15.60;99.90
14473;DHT22;7322;50.872;4.386;2023-12-07T03:50:27;15.60;99.90
14473;DHT22;7322;50.872;4.386;2023-12-07T03:52:54;15.60;99.90
14473;DHT22;7322;50.872;4.386;2023-12-07T03:55:21;15.60;99.90
14473;DHT22;7322;50.872;4.386;2023-12-07T03:57:49;15.60;99.90
14473;DHT22;7322;50.872;4.386;2023-12-07T04:00:16;15.60;99.90
14473;DHT22;7322;50.872;4.386;2023-12-07T04:02:43;15.60;99.90
14473;DHT22;7322;50.872;4.386;2023-12-07T04:05:10;15.60;99.90
14473;DHT22;7322;50.872;4.386;2023-12-07T04:07:39;15.60;99.90
14473;DHT22;7322;50.872;4.386;2023-12-07T04:10:08;15.60;99.90
14473;DHT22;7322;50.872;4.386;2023-12-07T04:12:37;15.60;99.90
14473;DHT22;7322;50.872;4.386;2023-12-07T04:15:05;15.60;99.90
14473;DHT22;7322;50.872;4.386;2023-12-07T04:17:32;15.60;99.90
14473;DHT22;7322;50.872;4.386;2023-12-07T04:19:59;15.60;99.90
14473;DHT22;7322;50.872;4.386;2023-12-07T04:22:28;15.60;99.90
14473;DHT22;7322;50.872;4.386;2023-12-07T04:24:58;15.60;99.90
14473;DHT22;7322;50.872;4.386;2023-12-07T04:27:26;15.60;99.90
14473;DHT22;7322;50.872;4.386;2023-12-07T04:29:54;15.60;99.90
14473;DHT22;7322;50.872;4.386;2023-12-07T04:32:22;15.60;99.90
14473;DHT22;7322;50.872;4.386;2023-12-07T04:34:49;15.60;99.90
14473;DHT22;7322;50.872;4.386;2023-12-07T04:37:16;15.60;99.90
14473;DHT22;7322;50.872;4.386;2023-12-07T04:39:43;15.60;99.90
14473;DHT22;7322;50.872;4.386;2023-12-07T04:42:12;15.60;99.90
14473;DHT22;7322;50.872;4.386;2023-12-07T04:44:39;15.60;99.90
14473;DHT22;7322;50.872;4.386;2023-12-07T04:47:06;15.60;99.90
14473;DHT22;7322;50.872;4.386;2023-12-07T04:49:33;15.60;99.90
14473;DHT22;7322;50.872;4.386;2023-12-07T04:52:00;15.60;99.90
14473;DHT22;7322;50.872;4.386;2023-12-07T04:54:27;15.50;99.90
14473;DHT22;7322;50.872;4.386;2023-12-07T04:56:55;15.50;99.90
14473;DHT22;7322;50.872;4.386;2023-12-07T04:59:24;15.50;99.90
14473;DHT22;7322;50.872;4.386;2023-12-07T05:01:51;15.50;99.90
14473;DHT22;7322;50.872;4.386;2023-12-07T05:04:21;15.50;99.90
14473;DHT22;7322;50.872;4.386;2023-12-07T05:06:48;15.50;99.90
14473;DHT22;7322;50.872;4.386;2023-12-07T05:09:15;15.50;99.90
14473;DHT22;7322;50.872;4.386;2023-12-07T05:11:42;15.50;99.90
14473;DHT22;7322;50.872;4.386;2023-12-07T05:14:11;15.50;99.90
14473;DHT22;7322;50.872;4.386;2023-12-07T05:16:42;15.50;99.90
14473;DHT22;7322;50.872;4.386;2023-12-07T05:19:09;15.50;99.90
14473;DHT22;7322;50.872;4.386;2023-12-07T05:21:38;15.50;99.90
14473;DHT22;7322;50.872;4.386;2023-12-07T05:24:05;15.50;99.90
14473;DHT22;7322;50.872;4.386;2023-12-07T05:26:32;15.50;99.90
14473;DHT22;7322;50.872;4.386;2023-12-07T05:29:00;15.50;99.90
14473;DHT22;7322;50.872;4.386;2023-12-07T05:31:27;15.50;99.90
14473;DHT22;7322;50.872;4.386;2023-12-07T05:33:56;15.50;99.90
14473;DHT22;7322;50.872;4.386;2023-12-07T05:36:23;15.50;99.90
14473;DHT22;7322;50.872;4.386;2023-12-07T05:38:52;15.50;99.90
14473;DHT22;7322;50.872;4.386;2023-12-07T05:41:20;15.50;99.90
14473;DHT22;7322;50.872;4.386;2023-12-07T05:43:47;15.50;99.90
14473;DHT22;7322;50.872;4.386;2023-12-07T05:46:16;15.50;99.90
14473;DHT22;7322;50.872;4.386;2023-12-07T05:48:43;15.50;99.90
14473;DHT22;7322;50.872;4.386;2023-12-07T05:51:13;15.50;99.90
14473;DHT22;7322;50.872;4.386;2023-12-07T05:53:41;15.50;99.90
14473;DHT22;7322;50.872;4.386;2023-12-07T05:56:10;15.50;99.90
14473;DHT22;7322;50.872;4.386;2023-12-07T05:58:37;15.70;99.90
14473;DHT22;7322;50.872;4.386;2023-12-07T06:01:04;16.40;99.90
14473;DHT22;7322;50.872;4.386;2023-12-07T06:03:46;17.20;99.90
14473;DHT22;7322;50.872;4.386;2023-12-07T06:06:46;17.90;99.90
14473;DHT22;7322;50.872;4.386;2023-12-07T06:09:26;18.60;99.90
14473;DHT22;7322;50.872;4.386;2023-12-07T06:11:52;19.10;99.90
14473;DHT22;7322;50.872;4.386;2023-12-07T06:14:19;19.50;99.90
14473;DHT22;7322;50.872;4.386;2023-12-07T06:16:48;19.70;99.90
14473;DHT22;7322;50.872;4.386;2023-12-07T06:19:15;19.80;99.90
14473;DHT22;7322;50.872;4.386;2023-12-07T06:21:43;20.00;99.90
14473;DHT22;7322;50.872;4.386;2023-12-07T06:24:12;20.10;99.90
14473;DHT22;7322;50.872;4.386;2023-12-07T06:26:39;20.10;99.90
14473;DHT22;7322;50.872;4.386;2023-12-07T06:29:06;20.00;99.90
14473;DHT22;7322;50.872;4.386;2023-12-07T06:31:33;20.00;99.90
14473;DHT22;7322;50.872;4.386;2023-12-07T06:34:00;19.90;99.90
14473;DHT22;7322;50.872;4.386;2023-12-07T06:36:28;19.90;99.90
14473;DHT22;7322;50.872;4.386;2023-12-07T06:38:55;19.80;99.90
14473;DHT22;7322;50.872;4.386;2023-12-07T06:41:24;19.70;99.90
14473;DHT22;7322;50.872;4.386;2023-12-07T06:43:51;19.70;99.90
14473;DHT22;7322;50.872;4.386;2023-12-07T06:46:19;19.60;99.90
14473;DHT22;7322;50.872;4.386;2023-12-07T06:48:45;19.50;99.90
14473;DHT22;7322;50.872;4.386;2023-12-07T06:51:12;19.50;99.90
14473;DHT22;7322;50.872;4.386;2023-12-07T06:53:41;19.40;99.90
14473;DHT22;7322;50.872;4.386;2023-12-07T06:56:09;19.20;99.90
14473;DHT22;7322;50.872;4.386;2023-12-07T06:58:39;19.10;99.90
14473;DHT22;7322;50.872;4.386;2023-12-07T07:01:08;19.00;99.90
14473;DHT22;7322;50.872;4.386;2023-12-07T07:03:35;18.90;99.90
14473;DHT22;7322;50.872;4.386;2023-12-07T07:06:02;18.80;99.90
14473;DHT22;7322;50.872;4.386;2023-12-07T07:08:29;18.70;99.90
14473;DHT22;7322;50.872;4.386;2023-12-07T07:10:56;18.60;99.90
14473;DHT22;7322;50.872;4.386;2023-12-07T07:13:23;18.50;99.90
14473;DHT22;7322;50.872;4.386;2023-12-07T07:15:51;18.40;99.90
14473;DHT22;7322;50.872;4.386;2023-12-07T07:18:20;18.30;99.90
14473;DHT22;7322;50.872;4.386;2023-12-07T07:20:50;18.30;99.90
14473;DHT22;7322;50.872;4.386;2023-12-07T07:23:19;18.20;99.90
14473;DHT22;7322;50.872;4.386;2023-12-07T07:25:46;18.10;99.90
14473;DHT22;7322;50.872;4.386;2023-12-07T07:28:13;18.00;99.90
14473;DHT22;7322;50.872;4.386;2023-12-07T07:30:40;17.90;99.90
14473;DHT22;7322;50.872;4.386;2023-12-07T07:33:09;17.70;99.90
14473;DHT22;7322;50.872;4.386;2023-12-07T07:35:36;17.60;99.90
14473;DHT22;7322;50.872;4.386;2023-12-07T07:38:03;17.50;99.90
14473;DHT22;7322;50.872;4.386;2023-12-07T07:40:30;17.40;99.90
14473;DHT22;7322;50.872;4.386;2023-12-07T07:42:57;17.30;99.90
14473;DHT22;7322;50.872;4.386;2023-12-07T07:45:24;17.30;99.90
14473;DHT22;7322;50.872;4.386;2023-12-07T07:47:51;17.20;99.90
14473;DHT22;7322;50.872;4.386;2023-12-07T07:50:21;17.20;99.90
14473;DHT22;7322;50.872;4.386;2023-12-07T07:52:50;17.20;99.90
14473;DHT22;7322;50.872;4.386;2023-12-07T07:55:17;17.10;99.90
14473;DHT22;7322;50.872;4.386;2023-12-07T07:57:57;17.10;99.90
14473;DHT22;7322;50.872;4.386;2023-12-07T08:00:34;17.20;99.90
14473;DHT22;7322;50.872;4.386;2023-12-07T08:03:03;17.10;99.90
14473;DHT22;7322;50.872;4.386;2023-12-07T08:05:31;17.10;99.90
14473;DHT22;7322;50.872;4.386;2023-12-07T08:08:05;17.10;99.90
14473;DHT22;7322;50.872;4.386;2023-12-07T08:10:32;17.10;99.90
14473;DHT22;7322;50.872;4.386;2023-12-07T08:13:00;17.10;99.90
14473;DHT22;7322;50.872;4.386;2023-12-07T08:15:51;17.10;99.90
14473;DHT22;7322;50.872;4.386;2023-12-07T08:18:40;17.20;99.90
14473;DHT22;7322;50.872;4.386;2023-12-07T08:21:44;17.20;99.90
14473;DHT22;7322;50.872;4.386;2023-12-07T08:24:21;17.10;99.90
14473;DHT22;7322;50.872;4.386;2023-12-07T08:26:49;17.10;99.90
14473;DHT22;7322;50.872;4.386;2023-12-07T08:29:17;17.10;99.90
14473;DHT22;7322;50.872;4.386;2023-12-07T08:31:44;17.20;99.90
14473;DHT22;7322;50.872;4.386;2023-12-07T08:34:12;17.10;99.90
14473;DHT22;7322;50.872;4.386;2023-12-07T08:36:40;17.10;99.90
14473;DHT22;7322;50.872;4.386;2023-12-07T08:39:09;17.10;99.90
14473;DHT22;7322;50.872;4.386;2023-12-07T08:41:37;17.10;99.90
14473;DHT22;7322;50.872;4.386;2023-12-07T08:44:07;17.20;99.90
14473;DHT22;7322;50.872;4.386;2023-12-07T08:46:35;17.20;99.90
14473;DHT22;7322;50.872;4.386;2023-12-07T08:49:03;17.20;99.90
14473;DHT22;7322;50.872;4.386;2023-12-07T08:51:32;17.20;99.90
14473;DHT22;7322;50.872;4.386;2023-12-07T08:54:01;17.20;99.90
14473;DHT22;7322;50.872;4.386;2023-12-07T08:56:30;17.20;99.90
14473;DHT22;7322;50.872;4.386;2023-12-07T08:59:03;17.20;99.90
14473;DHT22;7322;50.872;4.386;2023-12-07T09:01:31;17.30;99.90
14473;DHT22;7322;50.872;4.386;2023-12-07T09:03:59;17.30;99.90
14473;DHT22;7322;50.872;4.386;2023-12-07T09:06:29;17.30;99.90
14473;DHT22;7322;50.872;4.386;2023-12-07T09:08:58;17.30;99.90
14473;DHT22;7322;50.872;4.386;2023-12-07T09:11:30;17.30;99.90
14473;DHT22;7322;50.872;4.386;2023-12-07T09:13:57;17.30;99.90
14473;DHT22;7322;50.872;4.386;2023-12-07T09:16:27;17.30;99.90
14473;DHT22;7322;50.872;4.386;2023-12-07T09:18:55;17.20;99.90
14473;DHT22;7322;50.872;4.386;2023-12-07T09:21:22;17.20;99.90
14473;DHT22;7322;50.872;4.386;2023-12-07T09:23:49;17.30;99.90
14473;DHT22;7322;50.872;4.386;2023-12-07T09:26:16;17.30;99.90
14473;DHT22;7322;50.872;4.386;2023-12-07T09:28:45;17.30;99.90
14473;DHT22;7322;50.872;4.386;2023-12-07T09:31:12;17.30;99.90
14473;DHT22;7322;50.872;4.386;2023-12-07T09:33:40;17.30;99.90
14473;DHT22;7322;50.872;4.386;2023-12-07T09:36:08;17.30;99.90
14473;DHT22;7322;50.872;4.386;2023-12-07T09:38:37;17.40;99.90
14473;DHT22;7322;50.872;4.386;2023-12-07T09:41:05;17.40;99.90
14473;DHT22;7322;50.872;4.386;2023-12-07T09:43:32;17.40;99.90
14473;DHT22;7322;50.872;4.386;2023-12-07T09:46:01;17.40;99.90
14473;DHT22;7322;50.872;4.386;2023-12-07T09:48:29;17.40;99.90
14473;DHT22;7322;50.872;4.386;2023-12-07T09:50:56;17.40;99.90
14473;DHT22;7322;50.872;4.386;2023-12-07T09:53:33;17.40;99.90
14473;DHT22;7322;50.872;4.386;2023-12-07T09:56:01;17.40;99.90
14473;DHT22;7322;50.872;4.386;2023-12-07T09:58:28;17.30;99.90
14473;DHT22;7322;50.872;4.386;2023-12-07T10:00:55;17.30;99.90
14473;DHT22;7322;50.872;4.386;2023-12-07T10:03:24;17.30;99.90
14473;DHT22;7322;50.872;4.386;2023-12-07T10:05:55;17.40;99.90
14473;DHT22;7322;50.872;4.386;2023-12-07T10:08:29;17.40;99.90
14473;DHT22;7322;50.872;4.386;2023-12-07T10:11:07;17.40;99.90
14473;DHT22;7322;50.872;4.386;2023-12-07T10:13:36;17.30;99.90
14473;DHT22;7322;50.872;4.386;2023-12-07T10:16:10;17.30;99.90
14473;DHT22;7322;50.872;4.386;2023-12-07T10:18:39;17.40;99.90
14473;DHT22;7322;50.872;4.386;2023-12-07T10:21:07;17.40;99.90
14473;DHT22;7322;50.872;4.386;2023-12-07T10:23:36;17.40;99.90
14473;DHT22;7322;50.872;4.386;2023-12-07T10:26:05;17.40;99.90
14473;DHT22;7322;50.872;4.386;2023-12-07T10:28:34;17.40;99.90
14473;DHT22;7322;50.872;4.386;2023-12-07T10:31:01;17.40;99.90
14473;DHT22;7322;50.872;4.386;2023-12-07T10:33:29;17.40;99.90
14473;DHT22;7322;50.872;4.386;2023-12-07T10:35:58;17.40;99.90
14473;DHT22;7322;50.872;4.386;2023-12-07T10:38:25;17.40;99.90
14473;DHT22;7322;50.872;4.386;2023-12-07T10:41:04;17.40;99.90
14473;DHT22;7322;50.872;4.386;2023-12-07T10:43:35;17.50;99.90
14473;DHT22;7322;50.872;4.386;2023-12-07T10:46:04;17.50;99.90
14473;DHT22;7322;50.872;4.386;2023-12-07T10:48:32;17.50;99.90
14473;DHT22;7322;50.872;4.386;2023-12-07T10:51:04;17.50;99.90
14473;DHT22;7322;50.872;4.386;2023-12-07T10:53:37;17.60;99.90
14473;DHT22;7322;50.872;4.386;2023-12-07T10:56:11;17.60;99.90
14473;DHT22;7322;50.872;4.386;2023-12-07T10:58:40;17.60;99.90
14473;DHT22;7322;50.872;4.386;2023-12-07T11:01:08;17.50;99.90
14473;DHT22;7322;50.872;4.386;2023-12-07T11:03:36;17.50;99.90
14473;DHT22;7322;50.872;4.386;2023-12-07T11:06:05;17.50;99.90
14473;DHT22;7322;50.872;4.386;2023-12-07T11:08:37;17.60;99.90
14473;DHT22;7322;50.872;4.386;2023-12-07T11:11:10;17.50;99.90
14473;DHT22;7322;50.872;4.386;2023-12-07T11:13:40;17.40;99.90
14473;DHT22;7322;50.872;4.386;2023-12-07T11:16:12;17.40;99.90
14473;DHT22;7322;50.872;4.386;2023-12-07T11:18:40;17.30;99.90
14473;DHT22;7322;50.872;4.386;2023-12-07T11:21:08;17.30;99.90
14473;DHT22;7322;50.872;4.386;2023-12-07T11:23:36;17.20;99.90
14473;DHT22;7322;50.872;4.386;2023-12-07T11:26:04;17.20;99.90
14473;DHT22;7322;50.872;4.386;2023-12-07T11:28:35;17.10;99.90
14473;DHT22;7322;50.872;4.386;2023-12-07T11:31:03;17.10;99.90
14473;DHT22;7322;50.872;4.386;2023-12-07T11:33:30;17.20;99.90
14473;DHT22;7322;50.872;4.386;2023-12-07T11:36:05;17.30;99.90
14473;DHT22;7322;50.872;4.386;2023-12-07T11:38:35;17.30;99.90
14473;DHT22;7322;50.872;4.386;2023-12-07T11:41:02;17.30;99.90
14473;DHT22;7322;50.872;4.386;2023-12-07T11:43:42;17.30;99.90
14473;DHT22;7322;50.872;4.386;2023-12-07T11:46:18;17.40;99.90
14473;DHT22;7322;50.872;4.386;2023-12-07T11:48:47;17.40;99.90
14473;DHT22;7322;50.872;4.386;2023-12-07T11:51:15;17.40;99.90
14473;DHT22;7322;50.872;4.386;2023-12-07T11:53:44;17.40;99.90
14473;DHT22;7322;50.872;4.386;2023-12-07T11:56:14;17.40;99.90
14473;DHT22;7322;50.872;4.386;2023-12-07T11:58:47;17.40;99.90
14473;DHT22;7322;50.872;4.386;2023-12-07T12:01:16;17.40;99.90
14473;DHT22;7322;50.872;4.386;2023-12-07T12:03:43;17.50;99.90
14473;DHT22;7322;50.872;4.386;2023-12-07T12:06:10;17.50;99.90
14473;DHT22;7322;50.872;4.386;2023-12-07T12:08:39;17.50;99.90
14473;DHT22;7322;50.872;4.386;2023-12-07T12:11:08;17.50;99.90
14473;DHT22;7322;50.872;4.386;2023-12-07T12:13:36;17.50;99.90
14473;DHT22;7322;50.872;4.386;2023-12-07T12:16:04;17.50;99.90
14473;DHT22;7322;50.872;4.386;2023-12-07T12:18:31;17.50;99.90
14473;DHT22;7322;50.872;4.386;2023-12-07T12:20:59;17.50;99.90
14473;DHT22;7322;50.872;4.386;2023-12-07T12:23:26;17.50;99.90
14473;DHT22;7322;50.872;4.386;2023-12-07T12:25:54;17.50;99.90
14473;DHT22;7322;50.872;4.386;2023-12-07T12:28:23;17.50;99.90
14473;DHT22;7322;50.872;4.386;2023-12-07T12:30:51;17.50;99.90
14473;DHT22;7322;50.872;4.386;2023-12-07T12:33:18;17.50;99.90
14473;DHT22;7322;50.872;4.386;2023-12-07T12:35:46;17.50;99.90
14473;DHT22;7322;50.872;4.386;2023-12-07T12:38:25;17.40;99.90
14473;DHT22;7322;50.872;4.386;2023-12-07T12:40:52;17.30;99.90
14473;DHT22;7322;50.872;4.386;2023-12-07T12:43:21;17.30;99.90
14473;DHT22;7322;50.872;4.386;2023-12-07T12:45:50;17.30;99.90
14473;DHT22;7322;50.872;4.386;2023-12-07T12:48:18;17.30;99.90
14473;DHT22;7322;50.872;4.386;2023-12-07T12:50:53;17.20;99.90
14473;DHT22;7322;50.872;4.386;2023-12-07T12:53:54;17.30;99.90
14473;DHT22;7322;50.872;4.386;2023-12-07T13:06:48;17.30;99.90
14473;DHT22;7322;50.872;4.386;2023-12-07T13:09:39;17.30;99.90
14473;DHT22;7322;50.872;4.386;2023-12-07T13:12:09;17.30;99.90
14473;DHT22;7322;50.872;4.386;2023-12-07T13:14:38;17.30;99.90
14473;DHT22;7322;50.872;4.386;2023-12-07T13:17:06;17.30;99.90
14473;DHT22;7322;50.872;4.386;2023-12-07T13:19:34;17.30;99.90
14473;DHT22;7322;50.872;4.386;2023-12-07T13:22:04;17.30;99.90
14473;DHT22;7322;50.872;4.386;2023-12-07T13:24:31;17.30;99.90
14473;DHT22;7322;50.872;4.386;2023-12-07T13:26:59;17.30;99.90
14473;DHT22;7322;50.872;4.386;2023-12-07T13:29:28;17.30;99.90
14473;DHT22;7322;50.872;4.386;2023-12-07T13:31:55;17.30;99.90
14473;DHT22;7322;50.872;4.386;2023-12-07T13:34:39;17.20;99.90
14473;DHT22;7322;50.872;4.386;2023-12-07T13:37:08;17.30;99.90
14473;DHT22;7322;50.872;4.386;2023-12-07T13:39:35;17.30;99.90
14473;DHT22;7322;50.872;4.386;2023-12-07T13:42:03;17.30;99.90
14473;DHT22;7322;50.872;4.386;2023-12-07T13:44:30;17.30;99.90
14473;DHT22;7322;50.872;4.386;2023-12-07T13:46:58;17.30;99.90
14473;DHT22;7322;50.872;4.386;2023-12-07T13:49:25;17.30;99.90
14473;DHT22;7322;50.872;4.386;2023-12-07T13:51:59;17.30;99.90
14473;DHT22;7322;50.872;4.386;2023-12-07T13:54:34;17.30;99.90
14473;DHT22;7322;50.872;4.386;2023-12-07T13:57:09;17.40;99.90
14473;DHT22;7322;50.872;4.386;2023-12-07T13:59:49;17.40;99.90
14473;DHT22;7322;50.872;4.386;2023-12-07T14:02:23;17.40;99.90
14473;DHT22;7322;50.872;4.386;2023-12-07T14:05:13;17.50;99.90
14473;DHT22;7322;50.872;4.386;2023-12-07T14:07:52;17.40;99.90
14473;DHT22;7322;50.872;4.386;2023-12-07T14:10:22;17.50;99.90
14473;DHT22;7322;50.872;4.386;2023-12-07T14:12:55;17.40;99.90
14473;DHT22;7322;50.872;4.386;2023-12-07T14:15:59;17.40;99.90
14473;DHT22;7322;50.872;4.386;2023-12-07T14:22:00;17.40;99.90
14473;DHT22;7322;50.872;4.386;2023-12-07T14:24:53;17.30;99.90
14473;DHT22;7322;50.872;4.386;2023-12-07T14:27:30;17.30;99.90
14473;DHT22;7322;50.872;4.386;2023-12-07T14:33:31;17.30;99.90
14473;DHT22;7322;50.872;4.386;2023-12-07T14:36:01;17.30;99.90
14473;DHT22;7322;50.872;4.386;2023-12-07T14:38:31;17.30;99.90
14473;DHT22;7322;50.872;4.386;2023-12-07T14:41:00;17.30;99.90
14473;DHT22;7322;50.872;4.386;2023-12-07T14:43:43;17.30;99.90
14473;DHT22;7322;50.872;4.386;2023-12-07T14:46:44;17.30;99.90
14473;DHT22;7322;50.872;4.386;2023-12-07T14:49:18;17.60;99.90
14473;DHT22;7322;50.872;4.386;2023-12-07T14:51:57;18.40;99.90
14473;DHT22;7322;50.872;4.386;2023-12-07T14:54:39;19.10;99.90
14473;DHT22;7322;50.872;4.386;2023-12-07T14:57:17;19.80;99.90
14473;DHT22;7322;50.872;4.386;2023-12-07T14:59:46;20.40;99.90
14473;DHT22;7322;50.872;4.386;2023-12-07T15:02:14;20.80;99.90
14473;DHT22;7322;50.872;4.386;2023-12-07T15:04:47;21.10;99.90
14473;DHT22;7322;50.872;4.386;2023-12-07T15:07:14;21.20;99.90
14473;DHT22;7322;50.872;4.386;2023-12-07T15:09:48;21.20;99.90
14473;DHT22;7322;50.872;4.386;2023-12-07T15:12:17;21.10;99.90
14473;DHT22;7322;50.872;4.386;2023-12-07T15:14:58;21.00;99.90
14473;DHT22;7322;50.872;4.386;2023-12-07T15:17:43;20.80;99.90
14473;DHT22;7322;50.872;4.386;2023-12-07T15:20:21;20.70;99.90
14473;DHT22;7322;50.872;4.386;2023-12-07T15:22:55;20.60;99.90
14473;DHT22;7322;50.872;4.386;2023-12-07T15:25:31;20.50;99.90
14473;DHT22;7322;50.872;4.386;2023-12-07T15:28:15;20.40;99.90
14473;DHT22;7322;50.872;4.386;2023-12-07T15:30:51;20.40;99.90
14473;DHT22;7322;50.872;4.386;2023-12-07T15:33:30;20.30;99.90
14473;DHT22;7322;50.872;4.386;2023-12-07T15:36:04;20.30;99.90
14473;DHT22;7322;50.872;4.386;2023-12-07T15:39:02;20.20;99.90
14473;DHT22;7322;50.872;4.386;2023-12-07T15:41:30;20.10;99.90
14473;DHT22;7322;50.872;4.386;2023-12-07T15:43:57;20.20;99.90
14473;DHT22;7322;50.872;4.386;2023-12-07T15:46:25;20.10;99.90
14473;DHT22;7322;50.872;4.386;2023-12-07T15:48:54;20.10;99.90
14473;DHT22;7322;50.872;4.386;2023-12-07T15:51:31;20.10;99.90
14473;DHT22;7322;50.872;4.386;2023-12-07T15:54:10;20.10;99.90
14473;DHT22;7322;50.872;4.386;2023-12-07T15:56:57;20.10;99.90
14473;DHT22;7322;50.872;4.386;2023-12-07T16:00:01;20.30;99.90
14473;DHT22;7322;50.872;4.386;2023-12-07T16:02:57;20.40;99.90
14473;DHT22;7322;50.872;4.386;2023-12-07T16:05:35;20.50;99.90
14473;DHT22;7322;50.872;4.386;2023-12-07T16:08:34;20.70;99.90
14473;DHT22;7322;50.872;4.386;2023-12-07T16:11:10;20.80;99.90
14473;DHT22;7322;50.872;4.386;2023-12-07T16:13:57;20.90;99.90
14473;DHT22;7322;50.872;4.386;2023-12-07T16:16:52;21.00;99.90
14473;DHT22;7322;50.872;4.386;2023-12-07T16:19:23;21.00;99.90
14473;DHT22;7322;50.872;4.386;2023-12-07T16:21:55;21.10;99.90
14473;DHT22;7322;50.872;4.386;2023-12-07T16:24:26;21.40;99.90